AVB weather

Aviano Air Base
Aviano (PN), Friuli-Venezia Giulia, Italy

Public forecast

Using degrees Celsius for public forecast. Weather courtesy of forecast.io.

METAR (pilot weather report)

Retrieved 2019/04/19 16:55 UTC (1 hour ago):

LIPA 191655Z 24007KT CAVOK 20/06 Q1027 RMK SKC VIS MIN 9999 WIND THR05 24007KT WIND THR23 26005KT A3034 BLU

TAF (pilot weather forecast)

Forecast is more than 12 hours old.

Retrieved 2015/11/03 12:24 UTC (3 years ago):

TAF TAF LIPA 031100Z 0312/0324 VRB03KT CAVOK